createdAt,value
2018-03-02T00:00:12.103Z,48.17
2018-03-02T00:02:39.651Z,50.15
2018-03-02T00:05:07.198Z,43.42
2018-03-02T00:07:34.806Z,41.28
2018-03-02T00:10:02.399Z,43.03
2018-03-02T00:12:29.993Z,43.25
2018-03-02T00:14:57.544Z,44.17
2018-03-02T00:17:25.129Z,47.53
2018-03-02T00:19:52.702Z,47.88
2018-03-02T00:22:20.373Z,43.28
2018-03-02T00:24:47.922Z,43.70
2018-03-02T00:27:15.543Z,44.15
2018-03-02T00:29:43.146Z,46.53
2018-03-02T00:32:10.695Z,47.00
2018-03-02T00:34:38.244Z,49.65
2018-03-02T00:37:05.792Z,42.70
2018-03-02T00:39:33.383Z,45.05
2018-03-02T00:42:00.894Z,48.83
2018-03-02T00:44:28.407Z,43.10
2018-03-02T00:46:56.248Z,47.05
2018-03-02T00:49:23.759Z,46.92
2018-03-02T00:51:51.302Z,48.25
2018-03-02T00:54:19.581Z,49.00
2018-03-02T00:56:47.902Z,52.47
2018-03-02T00:59:15.422Z,45.63
2018-03-02T01:01:42.988Z,47.53
2018-03-02T01:04:10.512Z,50.35
2018-03-02T01:06:38.069Z,48.38
2018-03-02T01:09:05.662Z,48.22
2018-03-02T01:11:33.936Z,48.58
2018-03-02T01:14:01.505Z,54.08
2018-03-02T01:16:29.103Z,54.90
2018-03-02T01:18:56.687Z,52.15
2018-03-02T01:21:24.225Z,52.00
2018-03-02T01:23:51.772Z,49.03
2018-03-02T01:26:19.309Z,57.17
2018-03-02T01:28:46.893Z,53.97
2018-03-02T01:31:14.436Z,59.25
2018-03-02T01:33:41.978Z,54.80
2018-03-02T01:36:10.272Z,56.33
2018-03-02T01:38:37.851Z,56.70
2018-03-02T01:41:05.500Z,56.97
2018-03-02T01:43:33.081Z,60.40
2018-03-02T01:46:00.622Z,51.72
2018-03-02T01:48:28.180Z,54.05
2018-03-02T01:50:55.710Z,56.90
2018-03-02T01:53:23.285Z,58.45
2018-03-02T01:55:50.838Z,58.15
2018-03-02T01:58:18.415Z,62.13
2018-03-02T02:00:45.978Z,56.42
2018-03-02T02:03:13.530Z,51.88
2018-03-02T02:05:41.096Z,62.42
2018-03-02T02:08:08.656Z,61.92
2018-03-02T02:10:36.209Z,68.60
2018-03-02T02:13:03.778Z,57.45
2018-03-02T02:15:31.356Z,60.92
2018-03-02T02:17:58.922Z,60.08
2018-03-02T02:20:26.498Z,54.97
2018-03-02T02:22:54.075Z,63.30
2018-03-02T02:25:22.382Z,61.22
2018-03-02T02:27:49.930Z,62.70
2018-03-02T02:30:17.453Z,60.92
2018-03-02T02:32:45.007Z,56.90
2018-03-02T02:35:12.566Z,64.40
2018-03-02T02:37:40.133Z,57.38
2018-03-02T02:40:07.664Z,58.85
2018-03-02T02:42:35.237Z,57.00
2018-03-02T02:45:02.752Z,57.60
2018-03-02T02:47:30.323Z,61.40
2018-03-02T02:49:57.832Z,56.92
2018-03-02T02:52:25.354Z,57.40
2018-03-02T02:54:52.892Z,52.30
2018-03-02T02:57:20.412Z,54.17
2018-03-02T02:59:47.956Z,57.75
2018-03-02T03:02:15.489Z,57.13
2018-03-02T03:04:43.032Z,52.30
2018-03-02T03:07:10.541Z,57.25
2018-03-02T03:09:38.095Z,52.72
2018-03-02T03:12:05.630Z,55.10
2018-03-02T03:14:33.208Z,58.50
2018-03-02T03:17:00.762Z,57.83
2018-03-02T03:19:28.341Z,52.17
2018-03-02T03:21:56.661Z,59.58
2018-03-02T03:24:24.232Z,56.08
2018-03-02T03:26:51.797Z,54.40
2018-03-02T03:29:19.373Z,54.60
2018-03-02T03:31:47.920Z,48.80
2018-03-02T03:34:15.502Z,55.20
2018-03-02T03:36:43.063Z,51.83
2018-03-02T03:39:10.595Z,52.33
2018-03-02T03:41:38.180Z,51.42
2018-03-02T03:44:05.769Z,48.92
2018-03-02T03:46:33.290Z,56.08
2018-03-02T03:49:00.868Z,50.35
2018-03-02T03:51:28.397Z,51.63
2018-03-02T03:53:55.984Z,52.50
2018-03-02T03:56:23.525Z,52.20
2018-03-02T03:58:51.088Z,53.25
2018-03-02T04:01:18.591Z,50.22
2018-03-02T04:03:46.171Z,56.05
2018-03-02T04:06:13.678Z,51.13
2018-03-02T04:08:41.232Z,47.53
2018-03-02T04:11:08.737Z,48.22
2018-03-02T04:13:36.308Z,49.88
2018-03-02T04:16:04.597Z,53.38
2018-03-02T04:18:32.144Z,55.17
2018-03-02T04:20:59.671Z,53.83
2018-03-02T04:23:27.217Z,57.65
2018-03-02T04:25:54.769Z,55.67
2018-03-02T04:28:22.349Z,54.13
2018-03-02T04:30:50.262Z,52.45
2018-03-02T04:33:17.868Z,56.42
2018-03-02T04:35:45.414Z,56.03
2018-03-02T04:38:13.224Z,54.67
2018-03-02T04:40:40.784Z,62.08
2018-03-02T04:43:08.360Z,54.28
2018-03-02T04:45:35.944Z,57.53
2018-03-02T04:48:03.506Z,54.28
2018-03-02T04:50:31.042Z,50.85
2018-03-02T04:52:59.351Z,46.35
2018-03-02T04:55:27.648Z,61.58
2018-03-02T04:57:55.200Z,54.60
2018-03-02T05:00:22.720Z,55.00
2018-03-02T05:02:50.270Z,50.03
2018-03-02T05:05:18.555Z,56.25
2018-03-02T05:07:46.132Z,51.63
2018-03-02T05:10:13.675Z,56.60
2018-03-02T05:12:41.254Z,52.00
2018-03-02T05:15:08.786Z,57.47
2018-03-02T05:17:36.344Z,54.65
2018-03-02T05:20:06.094Z,53.28
2018-03-02T05:22:33.726Z,55.12
2018-03-02T05:25:01.242Z,57.20
2018-03-02T05:27:28.790Z,52.60
2018-03-02T05:29:56.326Z,54.47
2018-03-02T05:32:23.916Z,56.00
2018-03-02T05:34:51.460Z,60.08
2018-03-02T05:37:19.712Z,56.08
2018-03-02T05:39:47.239Z,57.70
2018-03-02T05:42:14.878Z,57.85
2018-03-02T05:44:42.426Z,75.05
2018-03-02T05:47:09.998Z,111.95
2018-03-02T05:49:37.546Z,71.68
2018-03-02T05:52:05.136Z,58.38
2018-03-02T05:54:32.692Z,57.95
2018-03-02T05:57:00.293Z,59.72
2018-03-02T05:59:27.854Z,57.28
2018-03-02T06:01:55.426Z,62.38
2018-03-02T06:04:22.952Z,60.80
2018-03-02T06:06:51.282Z,60.58
2018-03-02T06:09:18.812Z,67.72
2018-03-02T06:11:46.342Z,63.63
2018-03-02T06:14:13.903Z,64.53
2018-03-02T06:16:41.438Z,69.32
2018-03-02T06:19:08.987Z,65.85
2018-03-02T06:21:36.524Z,69.30
2018-03-02T06:24:04.078Z,61.78
2018-03-02T06:26:31.618Z,62.33
2018-03-02T06:28:59.168Z,61.17
2018-03-02T06:31:26.712Z,66.43
2018-03-02T06:33:54.267Z,72.53
2018-03-02T06:36:22.549Z,72.72
2018-03-02T06:38:50.890Z,69.05
2018-03-02T06:41:19.772Z,67.20
2018-03-02T06:43:47.332Z,63.72
2018-03-02T06:46:14.857Z,95.15
2018-03-02T06:48:42.413Z,84.95
2018-03-02T06:51:09.962Z,72.87
2018-03-02T06:53:38.276Z,70.05
2018-03-02T06:56:05.820Z,71.82
2018-03-02T06:58:33.372Z,75.80
2018-03-02T07:01:00.909Z,62.30
2018-03-02T07:03:29.258Z,65.55
2018-03-02T07:05:56.819Z,78.68
2018-03-02T07:08:25.186Z,67.47
2018-03-02T07:10:52.748Z,75.53
2018-03-02T07:13:20.296Z,76.60
2018-03-02T07:15:47.900Z,71.70
2018-03-02T07:18:15.470Z,69.50
2018-03-02T07:20:43.781Z,74.07
2018-03-02T07:23:11.340Z,74.40
2018-03-02T07:25:38.875Z,72.53
2018-03-02T07:28:06.434Z,80.38
2018-03-02T07:30:33.964Z,75.53
2018-03-02T07:33:02.311Z,75.22
2018-03-02T07:35:29.852Z,72.22
2018-03-02T07:37:57.428Z,71.00
2018-03-02T07:40:24.977Z,73.30
2018-03-02T07:42:52.554Z,82.40
2018-03-02T07:45:20.068Z,75.07
2018-03-02T07:47:47.646Z,69.70
2018-03-02T07:50:15.183Z,69.55
2018-03-02T07:52:42.774Z,61.28
2018-03-02T07:55:10.303Z,67.87
2018-03-02T07:57:37.855Z,69.50
2018-03-02T08:00:06.186Z,70.60
2018-03-02T08:02:33.710Z,73.25
2018-03-02T08:05:01.254Z,71.00
2018-03-02T08:07:29.576Z,69.10
2018-03-02T08:09:57.100Z,70.30
2018-03-02T08:12:24.649Z,71.15
2018-03-02T08:14:52.205Z,74.70
2018-03-02T08:17:20.489Z,85.35
2018-03-02T08:19:48.093Z,99.32
2018-03-02T08:22:15.650Z,81.87
2018-03-02T08:24:43.157Z,73.28
2018-03-02T08:27:10.743Z,64.90
2018-03-02T08:29:38.260Z,72.62
2018-03-02T08:32:05.824Z,75.72
2018-03-02T08:34:33.343Z,92.80
2018-03-02T08:37:00.893Z,69.62
2018-03-02T08:39:28.427Z,72.05
2018-03-02T08:41:55.976Z,74.60
2018-03-02T08:44:23.534Z,80.80
2018-03-02T08:46:51.105Z,73.82
2018-03-02T08:49:18.726Z,78.45
2018-03-02T08:51:46.270Z,65.35
2018-03-02T08:54:13.883Z,72.40
2018-03-02T08:56:42.176Z,69.78
2018-03-02T08:59:10.536Z,72.75
2018-03-02T09:01:38.103Z,71.72
2018-03-02T09:04:05.715Z,69.85
2018-03-02T09:06:33.265Z,73.32
2018-03-02T09:09:00.825Z,77.53
2018-03-02T09:11:28.331Z,77.15
2018-03-02T09:13:55.898Z,74.62
2018-03-02T09:16:23.454Z,70.00
2018-03-02T09:18:50.972Z,65.43
2018-03-02T09:21:18.532Z,66.60
2018-03-02T09:23:46.068Z,71.65
2018-03-02T09:26:13.662Z,71.45
2018-03-02T09:28:41.261Z,64.95
2018-03-02T09:31:08.784Z,69.45
2018-03-02T09:33:36.347Z,63.00
2018-03-02T09:36:03.887Z,74.45
2018-03-02T09:38:31.443Z,73.87
2018-03-02T09:40:58.966Z,66.85
2018-03-02T09:43:26.855Z,74.60
2018-03-02T09:45:54.421Z,67.15
2018-03-02T09:48:21.961Z,66.75
2018-03-02T09:50:49.481Z,69.25
2018-03-02T09:53:17.788Z,63.65
2018-03-02T09:55:45.330Z,65.35
2018-03-02T09:58:12.917Z,65.20
2018-03-02T10:00:40.493Z,61.05
2018-03-02T10:03:08.065Z,61.20
2018-03-02T10:05:35.595Z,70.43
2018-03-02T10:08:03.192Z,72.57
2018-03-02T10:10:30.715Z,66.12
2018-03-02T10:12:58.296Z,72.80
2018-03-02T10:15:25.837Z,65.93
2018-03-02T10:17:53.397Z,72.05
2018-03-02T10:20:20.939Z,69.35
2018-03-02T10:22:48.507Z,68.95
2018-03-02T10:25:16.020Z,63.60
2018-03-02T10:27:43.605Z,62.53
2018-03-02T10:30:11.115Z,66.95
2018-03-02T10:32:38.674Z,72.68
2018-03-02T10:35:06.207Z,61.40
2018-03-02T10:37:33.801Z,66.30
2018-03-02T10:40:01.335Z,65.80
2018-03-02T10:42:28.923Z,67.53
2018-03-02T10:44:56.465Z,69.30
2018-03-02T10:47:24.027Z,75.45
2018-03-02T10:49:51.632Z,70.20
2018-03-02T10:52:19.965Z,66.65
2018-03-02T10:54:47.506Z,70.22
2018-03-02T10:57:15.096Z,71.75
2018-03-02T10:59:42.637Z,68.78
2018-03-02T11:02:15.751Z,70.32
2018-03-02T11:04:47.697Z,70.72
2018-03-02T11:07:15.292Z,76.90
2018-03-02T11:09:42.887Z,86.20
2018-03-02T11:12:10.476Z,73.43
2018-03-02T11:14:38.042Z,79.53
2018-03-02T11:17:05.569Z,87.80
2018-03-02T11:19:33.158Z,81.80
2018-03-02T11:22:00.751Z,75.30
2018-03-02T11:24:29.046Z,68.35
2018-03-02T11:26:56.614Z,65.50
2018-03-02T11:29:24.134Z,63.17
2018-03-02T11:31:51.716Z,70.75
2018-03-02T11:34:19.249Z,74.03
2018-03-02T11:36:46.825Z,65.78
2018-03-02T11:39:15.115Z,77.15
2018-03-02T11:41:42.675Z,72.40
2018-03-02T11:44:10.189Z,72.43
2018-03-02T11:46:37.753Z,107.87
2018-03-02T11:49:05.315Z,82.70
2018-03-02T11:51:32.870Z,75.18
2018-03-02T11:54:00.408Z,69.07
2018-03-02T11:56:27.980Z,62.97
2018-03-02T11:58:55.550Z,65.70
2018-03-02T12:01:23.101Z,64.97
2018-03-02T12:03:50.663Z,69.80
2018-03-02T12:06:18.226Z,66.15
2018-03-02T12:08:45.794Z,62.15
2018-03-02T12:11:13.419Z,71.60
2018-03-02T12:13:40.995Z,66.68
2018-03-02T12:16:08.599Z,71.87
2018-03-02T12:18:36.164Z,70.50
2018-03-02T12:21:04.474Z,75.65
2018-03-02T12:23:32.089Z,71.22
2018-03-02T12:26:00.459Z,76.82
2018-03-02T12:28:28.073Z,71.20
2018-03-02T12:30:55.624Z,78.05
2018-03-02T12:33:23.204Z,70.85
2018-03-02T12:35:50.744Z,77.20
2018-03-02T12:38:18.304Z,75.43
2018-03-02T12:40:45.848Z,65.37
2018-03-02T12:43:13.426Z,66.10
2018-03-02T12:45:41.024Z,76.25
2018-03-02T12:48:08.621Z,77.85
2018-03-02T12:50:36.178Z,77.70
2018-03-02T12:53:04.514Z,89.55
2018-03-02T12:55:32.053Z,82.78
2018-03-02T12:57:59.627Z,69.55
2018-03-02T13:00:27.213Z,79.80
2018-03-02T13:02:54.769Z,77.20
2018-03-02T13:05:22.358Z,76.00
2018-03-02T13:07:50.675Z,72.72
2018-03-02T13:10:18.191Z,77.30
2018-03-02T13:12:45.777Z,68.68
2018-03-02T13:15:13.341Z,76.50
2018-03-02T13:17:40.913Z,76.62
2018-03-02T13:20:08.463Z,78.15
2018-03-02T13:22:38.707Z,73.57
2018-03-02T13:25:06.309Z,80.05
2018-03-02T13:27:46.480Z,74.62
2018-03-02T13:30:14.791Z,78.93
2018-03-02T13:32:49.146Z,83.60
2018-03-02T13:35:16.692Z,77.65
2018-03-02T13:37:44.251Z,81.32
2018-03-02T13:40:23.554Z,74.72
2018-03-02T13:42:51.120Z,82.20
2018-03-02T13:45:18.655Z,83.05
2018-03-02T13:51:00.496Z,77.57
2018-03-02T13:53:28.258Z,76.60
2018-03-02T13:55:56.016Z,117.20
2018-03-02T13:58:23.663Z,96.45
2018-03-02T14:00:51.415Z,100.40
2018-03-02T14:03:31.026Z,94.53
2018-03-02T14:05:58.557Z,83.22
2018-03-02T14:08:26.129Z,75.95
2018-03-02T14:10:53.685Z,72.78
2018-03-02T14:13:21.259Z,75.12
2018-03-02T14:15:48.836Z,76.20
2018-03-02T14:18:16.382Z,75.28
2018-03-02T14:20:43.932Z,78.60
2018-03-02T14:23:11.494Z,78.65
2018-03-02T14:25:39.056Z,74.15
2018-03-02T14:28:06.613Z,78.00
2018-03-02T14:30:34.129Z,78.53
2018-03-02T14:33:01.689Z,74.50
2018-03-02T14:35:29.259Z,74.07
2018-03-02T14:37:56.835Z,77.65
2018-03-02T14:40:24.398Z,70.90
2018-03-02T14:42:51.959Z,73.28
2018-03-02T14:45:19.469Z,69.00
2018-03-02T14:47:47.071Z,79.28
2018-03-02T14:50:14.688Z,74.25
2018-03-02T14:52:42.407Z,69.90
2018-03-02T14:55:10.082Z,69.57
2018-03-02T14:57:37.754Z,65.70
2018-03-02T15:00:05.337Z,71.28
2018-03-02T15:02:33.753Z,77.28
2018-03-02T15:05:01.489Z,74.03
2018-03-02T15:07:29.189Z,74.75
2018-03-02T15:09:56.804Z,75.78
2018-03-02T15:12:24.397Z,75.00
2018-03-02T15:14:51.970Z,70.80
2018-03-02T15:17:19.614Z,77.90
2018-03-02T15:19:47.236Z,71.22
2018-03-02T15:22:14.857Z,67.70
2018-03-02T15:24:43.301Z,79.68
2018-03-02T15:27:10.923Z,75.53
2018-03-02T15:29:38.462Z,80.35
2018-03-02T15:32:06.571Z,71.22
2018-03-02T15:34:34.186Z,68.12
2018-03-02T15:37:01.825Z,71.62
2018-03-02T15:39:29.440Z,80.55
2018-03-02T15:41:57.042Z,67.60
2018-03-02T15:44:25.833Z,70.93
2018-03-02T15:46:53.498Z,69.32
2018-03-02T15:49:21.137Z,73.55
2018-03-02T15:51:50.071Z,73.32
2018-03-02T15:54:17.760Z,73.80
2018-03-02T15:56:45.518Z,69.37
2018-03-02T15:59:14.341Z,72.78
2018-03-02T16:01:42.049Z,72.85
2018-03-02T16:04:09.680Z,72.10
2018-03-02T16:06:39.265Z,76.00
2018-03-02T16:09:07.653Z,73.20
2018-03-02T16:11:35.542Z,70.10
2018-03-02T16:14:03.236Z,72.68
2018-03-02T16:16:31.465Z,69.28
2018-03-02T16:18:59.205Z,70.47
2018-03-02T16:21:26.744Z,73.03
2018-03-02T16:23:54.389Z,77.55
2018-03-02T16:26:22.110Z,79.05
2018-03-02T16:28:49.689Z,77.72
2018-03-02T16:31:17.343Z,76.00
2018-03-02T16:33:45.274Z,76.10
2018-03-02T16:36:12.907Z,84.93
2018-03-02T16:38:40.678Z,80.80
2018-03-02T16:41:09.208Z,116.15
2018-03-02T16:43:37.700Z,117.10
2018-03-02T16:46:05.398Z,80.80
2018-03-02T16:48:33.049Z,87.28
2018-03-02T16:51:01.004Z,84.90
2018-03-02T16:53:28.598Z,78.07
2018-03-02T16:55:56.640Z,90.97
2018-03-02T16:58:24.211Z,81.18
2018-03-02T17:00:51.806Z,83.32
2018-03-02T17:03:20.339Z,80.85
2018-03-02T17:05:48.682Z,78.20
2018-03-02T17:08:17.153Z,78.78
2018-03-02T17:10:44.820Z,73.53
2018-03-02T17:13:12.474Z,80.97
2018-03-02T17:15:40.077Z,72.93
2018-03-02T17:18:07.706Z,95.62
2018-03-02T17:20:35.337Z,158.52
2018-03-02T17:23:02.986Z,114.37
2018-03-02T17:25:31.558Z,104.70
2018-03-02T17:27:59.181Z,110.50
2018-03-02T17:30:27.626Z,85.07
2018-03-02T17:32:56.321Z,88.53
2018-03-02T17:35:23.915Z,75.15
2018-03-02T17:37:51.501Z,78.87
2018-03-02T17:40:20.793Z,80.15
2018-03-02T17:42:48.371Z,86.65
2018-03-02T17:45:15.938Z,79.00
2018-03-02T17:47:43.536Z,82.82
2018-03-02T17:50:11.967Z,74.18
2018-03-02T17:52:40.452Z,81.20
2018-03-02T17:55:08.039Z,83.80
2018-03-02T17:57:35.592Z,80.60
2018-03-02T18:00:03.736Z,76.00
2018-03-02T18:02:31.296Z,77.28
2018-03-02T18:04:58.909Z,81.70
2018-03-02T18:07:26.532Z,77.15
2018-03-02T18:09:54.125Z,67.55
2018-03-02T18:12:22.451Z,75.12
2018-03-02T18:14:51.952Z,77.35
2018-03-02T18:17:20.386Z,69.90
2018-03-02T18:19:48.039Z,70.07
2018-03-02T18:22:15.713Z,73.20
2018-03-02T18:24:43.317Z,76.03
2018-03-02T18:27:10.978Z,73.55
2018-03-02T18:29:38.605Z,72.15
2018-03-02T18:32:07.080Z,83.10
2018-03-02T18:34:35.501Z,77.93
2018-03-02T18:37:03.339Z,90.30
2018-03-02T18:39:30.946Z,75.82
2018-03-02T18:41:58.553Z,78.12
2018-03-02T18:44:27.073Z,78.30
2018-03-02T18:46:54.744Z,83.07
2018-03-02T18:49:22.440Z,81.47
2018-03-02T18:51:51.095Z,89.35
2018-03-02T18:54:18.861Z,94.43
2018-03-02T18:56:46.660Z,79.40
2018-03-02T18:59:15.106Z,84.90
2018-03-02T19:01:42.805Z,79.87
2018-03-02T19:04:10.414Z,87.68
2018-03-02T19:06:38.088Z,87.20
2018-03-02T19:09:05.735Z,90.45
2018-03-02T19:11:33.370Z,90.03
2018-03-02T19:14:01.027Z,96.90
2018-03-02T19:16:28.690Z,97.00
2018-03-02T19:18:57.085Z,90.90
2018-03-02T19:21:24.772Z,101.40
2018-03-02T19:23:53.188Z,92.15
2018-03-02T19:26:20.875Z,97.75
2018-03-02T19:28:49.808Z,86.43
2018-03-02T19:31:17.607Z,97.50
2018-03-02T19:33:46.927Z,88.05
2018-03-02T19:36:15.560Z,91.87
2018-03-02T19:38:43.180Z,95.68
2018-03-02T19:41:11.653Z,98.07
2018-03-02T19:43:39.299Z,80.18
2018-03-02T19:46:06.992Z,94.07
2018-03-02T19:48:35.827Z,91.75
2018-03-02T19:51:03.626Z,98.82
2018-03-02T19:53:31.375Z,88.85
2018-03-02T19:55:59.120Z,99.30
2018-03-02T19:58:26.861Z,101.47
2018-03-02T20:00:54.529Z,95.70
2018-03-02T20:03:22.343Z,88.82
2018-03-02T20:05:50.044Z,94.97
2018-03-02T20:08:17.789Z,88.70
2018-03-02T20:10:46.731Z,90.40
2018-03-02T20:13:14.372Z,92.28
2018-03-02T20:15:42.043Z,90.00
2018-03-02T20:18:09.849Z,96.12
2018-03-02T20:20:38.276Z,91.28
2018-03-02T20:23:05.945Z,91.25
2018-03-02T20:25:35.163Z,86.15
2018-03-02T20:28:03.082Z,90.18
2018-03-02T20:30:30.865Z,83.72
2018-03-02T20:32:58.554Z,86.65
2018-03-02T20:35:26.222Z,92.75
2018-03-02T20:37:53.779Z,79.35
2018-03-02T20:40:23.604Z,80.68
2018-03-02T20:42:51.193Z,82.95
2018-03-02T20:45:19.607Z,80.72
2018-03-02T20:47:47.173Z,78.18
2018-03-02T20:50:14.785Z,84.28
2018-03-02T20:52:43.169Z,80.55
2018-03-02T20:55:10.746Z,85.72
2018-03-02T20:57:38.600Z,80.68
2018-03-02T21:00:06.969Z,83.78
2018-03-02T21:02:34.556Z,75.37
2018-03-02T21:05:02.114Z,73.00
2018-03-02T21:07:29.751Z,75.28
2018-03-02T21:09:57.413Z,72.22
2018-03-02T21:12:25.027Z,77.68
2018-03-02T21:14:52.642Z,71.28
2018-03-02T21:17:21.028Z,67.68
2018-03-02T21:19:48.683Z,74.57
2018-03-02T21:22:16.295Z,73.62
2018-03-02T21:24:43.908Z,75.25
2018-03-02T21:27:12.340Z,74.05
2018-03-02T21:29:39.908Z,74.57
2018-03-02T21:32:07.531Z,86.80
2018-03-02T21:34:35.186Z,78.65
2018-03-02T21:37:02.752Z,75.90
2018-03-02T21:39:30.294Z,66.87
2018-03-02T21:41:58.725Z,68.15
2018-03-02T21:44:26.220Z,73.87
2018-03-02T21:46:54.526Z,65.55
2018-03-02T21:49:22.093Z,62.28
2018-03-02T21:51:49.655Z,65.20
2018-03-02T21:54:17.214Z,67.68
2018-03-02T21:56:44.805Z,61.40
2018-03-02T21:59:12.433Z,66.93
2018-03-02T22:01:39.999Z,67.32
2018-03-02T22:04:07.560Z,72.78
2018-03-02T22:06:35.185Z,66.22
2018-03-02T22:09:04.078Z,72.97
2018-03-02T22:11:31.700Z,72.87
2018-03-02T22:14:00.072Z,73.55
2018-03-02T22:16:27.612Z,78.93
2018-03-02T22:18:55.233Z,84.60
2018-03-02T22:21:23.607Z,83.20
2018-03-02T22:23:51.956Z,87.95
2018-03-02T22:26:19.568Z,102.05
2018-03-02T22:28:47.163Z,90.62
2018-03-02T22:31:14.709Z,102.50
2018-03-02T22:33:42.336Z,101.18
2018-03-02T22:36:10.689Z,104.50
2018-03-02T22:38:38.299Z,109.37
2018-03-02T22:41:05.858Z,110.00
2018-03-02T22:43:34.240Z,107.35
2018-03-02T22:46:01.868Z,99.28
2018-03-02T22:48:30.220Z,108.50
2018-03-02T22:50:57.775Z,95.78
2018-03-02T22:53:25.354Z,100.90
2018-03-02T22:55:52.903Z,102.45
2018-03-02T22:58:21.320Z,104.47
2018-03-02T23:00:48.992Z,97.93
2018-03-02T23:03:16.568Z,104.15
2018-03-02T23:05:44.124Z,100.57
2018-03-02T23:08:11.712Z,106.90
2018-03-02T23:10:39.259Z,110.10
2018-03-02T23:13:06.825Z,111.72
2018-03-02T23:15:34.459Z,108.20
2018-03-02T23:18:02.070Z,106.28
2018-03-02T23:20:30.416Z,98.15
2018-03-02T23:22:57.970Z,99.87
2018-03-02T23:25:26.786Z,111.68
2018-03-02T23:27:54.392Z,112.37
2018-03-02T23:30:21.930Z,114.95
2018-03-02T23:32:50.310Z,104.78
2018-03-02T23:35:18.676Z,109.53
2018-03-02T23:37:46.361Z,113.47
2018-03-02T23:40:13.919Z,113.10
2018-03-02T23:42:42.279Z,118.22
2018-03-02T23:45:10.633Z,117.85
2018-03-02T23:47:38.243Z,119.22
2018-03-02T23:50:05.776Z,117.60
2018-03-02T23:52:33.401Z,120.55
2018-03-02T23:55:00.991Z,117.53
2018-03-02T23:57:28.604Z,120.40
2018-03-02T23:59:56.987Z,129.55
